Aviation Digital Data Service (ADDS)

Output produced by METARs form (0243 UTC 24 July 2017)
found at http://www.aviationweather.gov/adds/metars/
 
TAF MWCB 231700Z 2318/2418 09010KT 9999 VCSH SCT016 SCT035
       
TAF MWCR 232300Z 2400/2424 13008KT 9999 VCSH SCT018CB